createdAt,value
2023-04-12T00:00:11.652Z,18.20
2023-04-12T00:05:16.529Z,13.27
2023-04-12T00:10:18.281Z,11.90
2023-04-12T00:15:24.454Z,10.67
2023-04-12T00:20:27.238Z,13.70
2023-04-12T00:25:29.109Z,21.77
2023-04-12T00:30:30.955Z,15.70
2023-04-12T00:35:32.692Z,13.03
2023-04-12T00:40:40.097Z,9.03
2023-04-12T00:45:44.849Z,14.77
2023-04-12T00:50:47.690Z,16.30
2023-04-12T00:55:50.846Z,17.87
2023-04-12T01:00:57.303Z,19.27
2023-04-12T01:06:14.168Z,12.53
2023-04-12T01:11:31.892Z,13.40
2023-04-12T01:16:47.725Z,14.73
2023-04-12T01:22:02.669Z,8.93
2023-04-12T01:27:11.244Z,13.27
2023-04-12T01:32:15.329Z,13.97
2023-04-12T01:37:19.918Z,21.40
2023-04-12T01:42:21.642Z,12.63
2023-04-12T01:47:25.942Z,13.43
2023-04-12T01:52:32.351Z,9.53
2023-04-12T01:57:35.335Z,11.27
2023-04-12T02:02:42.206Z,13.57
2023-04-12T02:07:46.901Z,8.67
2023-04-12T02:12:54.406Z,13.07
2023-04-12T02:17:56.433Z,9.63
2023-04-12T02:23:01.051Z,9.50
2023-04-12T02:28:02.735Z,8.67
2023-04-12T02:33:09.444Z,14.20
2023-04-12T02:38:14.221Z,13.63
2023-04-12T02:43:21.657Z,11.20
2023-04-12T02:48:32.582Z,14.17
2023-04-12T02:53:34.796Z,13.97
2023-04-12T02:58:48.565Z,14.03
2023-04-12T03:03:58.634Z,14.57
2023-04-12T03:09:16.254Z,11.57
2023-04-12T03:14:18.513Z,8.97
2023-04-12T03:19:20.973Z,11.70
2023-04-12T03:24:29.571Z,8.50
2023-04-12T03:29:31.833Z,10.13
2023-04-12T03:34:37.300Z,13.50
2023-04-12T03:39:48.562Z,12.20
2023-04-12T03:44:56.739Z,9.30
2023-04-12T03:50:11.610Z,7.73
2023-04-12T03:55:21.678Z,12.20
2023-04-12T04:00:31.755Z,8.13
2023-04-12T04:05:42.480Z,11.30
2023-04-12T04:10:46.180Z,10.47
2023-04-12T04:15:56.971Z,8.73
2023-04-12T04:21:01.839Z,11.87
2023-04-12T04:26:11.788Z,11.93
2023-04-12T04:31:39.588Z,10.30
2023-04-12T04:36:42.944Z,13.20
2023-04-12T04:41:54.501Z,9.93
2023-04-12T04:47:08.711Z,11.17
2023-04-12T04:52:10.690Z,12.97
2023-04-12T04:57:12.426Z,8.30
2023-04-12T05:02:16.709Z,8.60
2023-04-12T05:07:22.051Z,14.70
2023-04-12T05:12:24.450Z,8.73
2023-04-12T05:17:29.958Z,9.20
2023-04-12T05:22:33.957Z,9.83
2023-04-12T05:27:35.888Z,16.93
2023-04-12T05:32:47.402Z,11.80
2023-04-12T05:37:54.232Z,6.30
2023-04-12T05:42:58.397Z,11.53
2023-04-12T05:48:01.548Z,11.70
2023-04-12T05:53:04.389Z,12.80
2023-04-12T05:58:10.528Z,8.10
2023-04-12T06:03:12.902Z,11.73
2023-04-12T06:08:17.466Z,8.03
2023-04-12T06:13:22.689Z,11.00
2023-04-12T06:18:24.799Z,13.53
2023-04-12T06:23:26.997Z,12.17
2023-04-12T06:28:33.628Z,11.73
2023-04-12T06:33:40.268Z,9.17
2023-04-12T06:38:43.954Z,9.00
2023-04-12T06:43:45.744Z,6.73
2023-04-12T06:48:49.758Z,11.53
2023-04-12T06:53:54.192Z,7.47
2023-04-12T06:59:00.837Z,6.60
2023-04-12T07:04:03.693Z,9.83
2023-04-12T07:09:05.723Z,12.97
2023-04-12T07:14:09.631Z,9.43
2023-04-12T07:19:14.380Z,10.23
2023-04-12T07:24:18.381Z,8.27
2023-04-12T07:29:22.405Z,6.93
2023-04-12T07:34:26.691Z,10.57
2023-04-12T07:39:29.903Z,9.47
2023-04-12T07:44:36.326Z,9.53
2023-04-12T07:49:42.148Z,10.10
2023-04-12T07:54:44.003Z,13.83
2023-04-12T07:59:45.660Z,10.97
2023-04-12T08:04:49.595Z,11.40
2023-04-12T08:09:54.524Z,9.37
2023-04-12T08:15:01.006Z,8.30
2023-04-12T08:20:06.119Z,12.30
2023-04-12T08:25:08.802Z,12.30
2023-04-12T08:30:11.792Z,7.87
2023-04-12T08:35:14.955Z,13.63
2023-04-12T08:40:19.084Z,12.73
2023-04-12T08:45:21.521Z,14.00
2023-04-12T08:50:28.633Z,15.03
2023-04-12T08:55:32.395Z,15.27
2023-04-12T09:00:34.611Z,8.50
2023-04-12T09:05:36.384Z,9.23
2023-04-12T09:10:38.601Z,11.60
2023-04-12T09:15:49.138Z,12.10
2023-04-12T09:20:51.355Z,12.87
2023-04-12T09:25:55.605Z,8.13
2023-04-12T09:30:58.661Z,9.87
2023-04-12T09:36:05.401Z,12.67
2023-04-12T09:41:26.460Z,12.63
2023-04-12T09:46:29.489Z,13.67
2023-04-12T09:51:34.163Z,12.37
2023-04-12T09:56:37.821Z,8.47
2023-04-12T10:01:42.085Z,11.67
2023-04-12T10:06:48.358Z,8.70
2023-04-12T10:11:53.536Z,8.23
2023-04-12T10:17:02.052Z,10.83
2023-04-12T10:22:07.108Z,8.97
2023-04-12T10:27:15.488Z,14.10
2023-04-12T10:32:22.944Z,9.10
2023-04-12T10:38:04.265Z,9.57
2023-04-12T10:43:25.105Z,16.63
2023-04-12T10:48:59.344Z,7.43
2023-04-12T10:54:12.337Z,7.57
2023-04-12T10:59:15.420Z,10.60
2023-04-12T11:04:25.621Z,14.03
2023-04-12T11:09:48.694Z,12.10
2023-04-12T11:15:04.279Z,8.47
2023-04-12T11:20:16.888Z,9.80
2023-04-12T11:25:21.188Z,13.57
2023-04-12T11:30:28.400Z,9.67
2023-04-12T11:35:33.153Z,18.13
2023-04-12T11:40:37.891Z,11.97
2023-04-12T11:45:39.797Z,8.63
2023-04-12T11:50:41.786Z,8.80
2023-04-12T11:55:49.505Z,7.30
2023-04-12T12:00:51.450Z,6.80
2023-04-12T12:05:56.555Z,7.70
2023-04-12T12:11:07.952Z,7.77
2023-04-12T12:16:10.978Z,11.27
2023-04-12T12:21:13.759Z,6.80
2023-04-12T12:26:28.354Z,8.63
2023-04-12T12:31:33.655Z,5.53
2023-04-12T12:36:36.749Z,4.07
2023-04-12T12:41:39.613Z,5.00
2023-04-12T12:46:55.326Z,3.83
2023-04-12T12:52:02.516Z,3.00
2023-04-12T12:57:04.542Z,2.87
2023-04-12T13:02:07.642Z,3.10
2023-04-12T13:07:09.866Z,3.40
2023-04-12T13:12:11.841Z,4.60
2023-04-12T13:17:16.857Z,6.90
2023-04-12T13:22:18.688Z,4.80
2023-04-12T13:27:22.765Z,3.28
2023-04-12T13:32:30.151Z,3.42
2023-04-12T13:37:34.442Z,2.88
2023-04-12T13:42:42.974Z,4.53
2023-04-12T13:47:44.766Z,2.92
2023-04-12T13:52:46.522Z,2.65
2023-04-12T13:57:48.200Z,3.23
2023-04-12T14:02:52.228Z,4.18
2023-04-12T14:07:56.559Z,2.45
2023-04-12T14:12:58.316Z,3.08
2023-04-12T14:18:00.215Z,3.28
2023-04-12T14:23:06.477Z,3.28
2023-04-12T14:28:09.562Z,2.85
2023-04-12T14:33:14.055Z,2.10
2023-04-12T14:38:15.775Z,3.65
2023-04-12T14:43:20.001Z,2.58
2023-04-12T14:48:29.222Z,3.92
2023-04-12T14:53:31.542Z,4.68
2023-04-12T14:58:38.450Z,2.55
2023-04-12T15:03:42.442Z,7.00
2023-04-12T15:08:44.420Z,12.65
2023-04-12T15:13:46.182Z,6.93
2023-04-12T15:18:52.708Z,2.33
2023-04-12T15:23:54.471Z,9.65
2023-04-12T15:28:56.461Z,3.03
2023-04-12T15:33:58.853Z,3.10
2023-04-12T15:39:06.683Z,4.72
2023-04-12T15:44:14.123Z,4.72
2023-04-12T15:49:16.069Z,2.47
2023-04-12T15:54:17.918Z,2.88
2023-04-12T15:59:21.956Z,3.75
2023-04-12T16:04:23.736Z,4.55
2023-04-12T16:09:27.845Z,3.83
2023-04-12T16:14:29.655Z,6.30
2023-04-12T16:19:31.416Z,8.43
2023-04-12T16:24:33.243Z,3.10
2023-04-12T16:29:37.820Z,9.77
2023-04-12T16:34:44.672Z,6.17
2023-04-12T16:39:46.622Z,4.27
2023-04-12T16:44:52.035Z,6.87
2023-04-12T16:49:57.403Z,10.10
2023-04-12T16:55:00.562Z,5.43
2023-04-12T17:00:28.021Z,4.40
2023-04-12T17:05:30.281Z,5.07
2023-04-12T17:10:35.186Z,8.17
2023-04-12T17:15:38.997Z,5.73
2023-04-12T17:20:44.006Z,10.30
2023-04-12T17:25:46.380Z,8.47
2023-04-12T17:30:50.700Z,4.73
2023-04-12T17:35:58.017Z,5.87
2023-04-12T17:40:59.763Z,7.73
2023-04-12T17:46:04.109Z,9.23
2023-04-12T17:51:09.864Z,8.17
2023-04-12T17:56:13.907Z,7.77
2023-04-12T18:01:19.309Z,10.47
2023-04-12T18:06:23.089Z,9.80
2023-04-12T18:11:27.089Z,11.47
2023-04-12T18:16:32.685Z,11.93
2023-04-12T18:21:34.860Z,13.57
2023-04-12T18:26:41.131Z,84.53
2023-04-12T18:31:45.740Z,8.77
2023-04-12T18:36:49.843Z,13.87
2023-04-12T18:41:57.131Z,12.47
2023-04-12T18:46:58.883Z,22.57
2023-04-12T18:52:01.037Z,55.03
2023-04-12T18:57:03.578Z,38.77
2023-04-12T19:02:05.708Z,22.00
2023-04-12T19:07:08.192Z,14.17
2023-04-12T19:12:09.933Z,19.03
2023-04-12T19:17:11.780Z,17.90
2023-04-12T19:22:13.527Z,18.53
2023-04-12T19:27:15.690Z,15.10
2023-04-12T19:32:18.766Z,16.63
2023-04-12T19:37:22.083Z,14.67
2023-04-12T19:42:26.396Z,16.20
2023-04-12T19:47:29.047Z,14.23
2023-04-12T19:52:30.904Z,22.30
2023-04-12T19:57:38.548Z,14.73
2023-04-12T20:02:40.350Z,14.37
2023-04-12T20:07:45.486Z,17.40
2023-04-12T20:12:49.603Z,13.88
2023-04-12T20:17:54.132Z,13.47
2023-04-12T20:22:58.957Z,15.20
2023-04-12T20:28:02.891Z,15.63
2023-04-12T20:33:07.078Z,16.90
2023-04-12T20:38:12.021Z,16.43
2023-04-12T20:43:18.533Z,18.83
2023-04-12T20:48:22.420Z,15.43
2023-04-12T20:53:24.409Z,19.53
2023-04-12T20:58:36.747Z,15.00
2023-04-12T21:03:44.662Z,15.90
2023-04-12T21:08:50.549Z,22.20
2023-04-12T21:13:55.317Z,10.33
2023-04-12T21:18:59.574Z,14.77
2023-04-12T21:24:04.005Z,13.73
2023-04-12T21:29:05.713Z,19.10
2023-04-12T21:34:12.355Z,17.40
2023-04-12T21:39:14.184Z,20.63
2023-04-12T21:44:18.209Z,21.63
2023-04-12T21:49:19.947Z,18.77
2023-04-12T21:54:24.230Z,26.03
2023-04-12T21:59:26.664Z,19.57
2023-04-12T22:04:33.083Z,24.93
2023-04-12T22:09:35.804Z,24.73
2023-04-12T22:14:46.686Z,20.13
2023-04-12T22:19:48.544Z,24.97
2023-04-12T22:24:53.846Z,27.53
2023-04-12T22:29:55.522Z,36.40
2023-04-12T22:35:08.349Z,32.73
2023-04-12T22:40:12.495Z,30.73
2023-04-12T22:45:17.141Z,32.00
2023-04-12T22:50:19.666Z,34.87
2023-04-12T22:55:22.230Z,24.50
2023-04-12T23:00:26.973Z,31.90
2023-04-12T23:05:28.902Z,27.63
2023-04-12T23:10:33.656Z,28.90
2023-04-12T23:15:35.659Z,37.70
2023-04-12T23:20:38.206Z,27.40
2023-04-12T23:25:40.871Z,24.20
2023-04-12T23:30:49.957Z,26.67
2023-04-12T23:35:56.089Z,26.77
2023-04-12T23:41:04.260Z,32.17
2023-04-12T23:46:06.689Z,27.20
2023-04-12T23:51:11.054Z,22.43
2023-04-12T23:56:17.274Z,21.17
